Terminal Aerodrome Forecast
Issued by NWS

Home | Current Version | Previous Version | Text Only | Print | Product List | Glossary On
Versions: 1 2 3 4 5 6 7 8 9 10 11 12 13 14 15
000
FTUS41 KBOX 232320
TAFHYA
TAF
KHYA 232320Z 2400/2424 32011G20KT P6SM OVC035
     FM240700 32024G25KT P6SM SCT150
     FM241100 31021G32KT P6SM FEW250
     FM242300 33016G27KT P6SM SCT250=

USA.gov is the U.S. government's official web portal to all federal, state and local government web resources and services.